ADDS TAF Board (Experimental) INFO Settings
IDs: Format: Expanded Condensed

KSAN - San Diego Intl Arpt, CA, US

Issued at 1120 UTC 27 Sep 2016
Updated at 1207 UTC 27 Sep 2016
Time1151Z 27/13Z 27/14Z 27/15Z 27/16Z 27/17Z 27/18Z 27/19Z 27/20Z 27/21Z 27/22Z 27/23Z 28/00Z 28/01Z
Type OBS PRVL PRVL PRVL PRVL PRVL PRVL PRVL PRVL PRVL PRVL PRVL PRVL PRVL
VIS 10 >6 >6 >6 >6 >6 >6 >6 >6 >6 >6 >6 >6 >6
CIG 200 150 150 150 150 150 150 120 120 120 120 120 120 120
Cover BKN BKN BKN BKN BKN BKN BKN BKN BKN BKN BKN BKN BKN BKN
FltCat VFR VFR VFR VFR VFR VFR VFR VFR VFR VFR VFR VFR VFR VFR
WX -- -- -- -- -- -- -- -- -- -- -- -- -- --
WDir VRB VRB VRB VRB VRB VRB VRB 210 210 210 210 210 210 210
WSpd 0 4 4 4 5 5 5 9 9 9 9 9 9 9
WGst -- -- -- -- -- -- -- -- -- -- -- -- -- --
R09/27
XWnd VRB VRB VRB VRB VRB VRB VRB -9 -9 -9 -9 -9 -9 -9
HWnd VRB VRB VRB VRB VRB VRB VRB -2 -2 -2 -2 -2 -2 -2

Raw TAF
KSAN 271120Z 2712/2818 VRB04KT P6SM BKN150 WS015/09020KT
  FM271600 VRB05KT P6SM BKN150
  FM271900 21009KT P6SM BKN120
  FM280200 VRB04KT P6SM BKN100
  FM280800 VRB04KT P6SM SCT100 BKN200


Raw METAR
KSAN 271151Z 00000KT 10SM SCT150 BKN200 29/09 A2983 RMK AO2 SLP101 T02890089 10322 20278 56011
KSAN 271051Z 00000KT 10SM BKN150 BKN200 28/11 A2983 RMK AO2 SLP101 T02830106
KSAN 270951Z 03005KT 10SM BKN150 BKN200 30/08 A2984 RMK AO2 SLP103 T03000083

METAR Board
Radar Display
Forecast Discussion

TAF Board Legend

Potential Impact
Threat None Slight Moderate High
Visibility (sm) ≥5.1 5.1>X≥3 3>X≥1 <1
Ceiling (100 ft) ≥30.1 30.1>X≥10 10>X≥5 <5
Wind Speed (kt) <10 10≤X<20 20≤X<30 ≥30
Wind Gust (kt) <15 15≤X<25 25≤X<35 ≥35
Weather No Wx Reported VCTS,-TS,-FZRA,SN TS,FZRA +TS,+FZRA,+SN